Dades meteomassalio
Diari Summary for Noviembre 3, 2017 Units:  Metric    English   Both
« Previous Day
Next Day »
Diari Semanal Mensual Anual Personalitzat
  Maxima: Minima: Mijana:
Temperatura: 22.8 °C 5.0 °C 11.4 °C
Rosada: 12.6 °C 3.7 °C 7.6 °C
Humitat: 93 % 47 % 80 %
Velocitat del vent: 16.7 km/h 0.0 km/h 1.4 km/h
Racha vent: 16.7 km/h - -
Vent:- - WSW
Pressio: 1019.9 hPa 1014.1 hPa -
Pluja: 0.3 mm    
Historical Graphs
 
 
Tabular Data for Noviembre 3, 2017
Time Temperature Dew Point Pressure Wind Wind Speed Wind Gust Humidity Rainfall Rate (Hourly) solar Conditions
00:00 7.8 °C 5.7 °C 1019.9 hPa Calm     87 % 0.0 mm 0.0 W/m2 CLR
00:05 7.8 °C 5.7 °C 1019.9 hPa Calm     87 % 0.0 mm 0.0 W/m2 CLR
00:10 7.2 °C 5.2 °C 1019.9 hPa Calm     87 % 0.0 mm 0.0 W/m2 CLR
00:15 7.2 °C 5.4 °C 1019.9 hPa Calm     88 % 0.0 mm 0.0 W/m2 CLR
00:20 7.2 °C 5.4 °C 1019.9 hPa Calm     88 % 0.0 mm 0.0 W/m2 CLR
00:25 7.2 °C 5.4 °C 1019.9 hPa Calm     88 % 0.0 mm 0.0 W/m2 CLR
00:30 7.2 °C 5.6 °C 1019.9 hPa Calm     89 % 0.0 mm 0.0 W/m2 CLR
00:35 7.2 °C 5.4 °C 1019.9 hPa Calm     88 % 0.0 mm 0.0 W/m2 CLR
00:40 7.8 °C 5.9 °C 1019.9 hPa Calm     88 % 0.0 mm 0.0 W/m2 CLR
00:45 7.2 °C 5.4 °C 1019.5 hPa Calm     88 % 0.0 mm 0.0 W/m2 CLR
00:51 7.2 °C 5.6 °C 1019.5 hPa Calm     89 % 0.0 mm 0.0 W/m2 CLR
00:56 7.2 °C 5.6 °C 1019.5 hPa Calm     89 % 0.0 mm 0.0 W/m2 CLR
01:01 6.7 °C 5.0 °C 1019.5 hPa Calm     89 % 0.0 mm 0.0 W/m2 CLR
01:06 6.7 °C 5.0 °C 1019.5 hPa Calm     89 % 0.0 mm 0.0 W/m2 CLR
01:11 6.1 °C 4.4 °C 1019.5 hPa Calm     89 % 0.0 mm 0.0 W/m2 CLR
01:16 6.1 °C 4.4 °C 1019.5 hPa Calm     89 % 0.0 mm 0.0 W/m2 CLR
01:21 6.7 °C 5.0 °C 1019.5 hPa Calm     89 % 0.0 mm 0.0 W/m2 CLR
01:26 6.7 °C 5.0 °C 1019.5 hPa Calm     89 % 0.0 mm 0.0 W/m2 CLR
01:31 6.7 °C 5.2 °C 1019.5 hPa Calm     90 % 0.0 mm 0.0 W/m2 CLR
01:36 6.7 °C 5.2 °C 1019.5 hPa Calm     90 % 0.0 mm 0.0 W/m2 CLR
01:41 6.7 °C 5.2 °C 1019.5 hPa Calm     90 % 0.0 mm 0.0 W/m2 CLR
01:46 6.1 °C 4.6 °C 1019.2 hPa Calm     90 % 0.0 mm 0.0 W/m2 CLR
01:51 6.1 °C 4.6 °C 1019.2 hPa Calm     90 % 0.0 mm 0.0 W/m2 CLR
01:56 6.1 °C 4.6 °C 1019.2 hPa Calm     90 % 0.0 mm 0.0 W/m2 CLR
02:01 6.1 °C 4.6 °C 1019.2 hPa Calm     90 % 0.0 mm 0.0 W/m2 CLR
02:06 6.1 °C 4.6 °C 1019.2 hPa Calm     90 % 0.0 mm 0.0 W/m2 CLR
02:11 5.6 °C 4.1 °C 1018.8 hPa Calm     90 % 0.0 mm 0.0 W/m2 CLR
02:16 5.6 °C 4.1 °C 1019.2 hPa Calm     90 % 0.0 mm 0.0 W/m2 CLR
02:21 5.6 °C 4.1 °C 1018.8 hPa Calm     90 % 0.0 mm 0.0 W/m2 CLR
02:26 6.1 °C 4.6 °C 1018.8 hPa Calm     90 % 0.0 mm 0.0 W/m2 CLR
02:31 5.6 °C 4.1 °C 1018.8 hPa Calm     90 % 0.0 mm 0.0 W/m2 CLR
02:36 5.6 °C 4.1 °C 1018.8 hPa Calm     90 % 0.0 mm 0.0 W/m2 CLR
02:41 5.6 °C 4.1 °C 1018.8 hPa Calm     90 % 0.0 mm 0.0 W/m2 CLR
02:46 5.6 °C 4.1 °C 1018.8 hPa Calm     90 % 0.0 mm 0.0 W/m2 CLR
02:51 5.6 °C 4.2 °C 1018.8 hPa Calm     91 % 0.0 mm 0.0 W/m2 CLR
02:56 5.6 °C 4.2 °C 1018.5 hPa Calm     91 % 0.0 mm 0.0 W/m2 CLR
03:01 5.6 °C 4.2 °C 1018.5 hPa Calm     91 % 0.0 mm 0.0 W/m2 CLR
03:06 5.0 °C 3.7 °C 1018.5 hPa Calm     91 % 0.0 mm 0.0 W/m2 CLR
03:11 5.0 °C 3.7 °C 1018.5 hPa Calm     91 % 0.0 mm 0.0 W/m2 CLR
03:16 5.6 °C 4.2 °C 1018.2 hPa Calm     91 % 0.0 mm 0.0 W/m2 CLR
03:21 5.6 °C 4.2 °C 1018.5 hPa Calm     91 % 0.0 mm 0.0 W/m2 CLR
03:26 6.1 °C 4.8 °C 1018.5 hPa Calm     91 % 0.0 mm 0.0 W/m2 CLR
03:31 6.1 °C 4.8 °C 1018.5 hPa Calm     91 % 0.0 mm 0.0 W/m2 CLR
03:36 5.6 °C 4.1 °C 1018.2 hPa Calm     90 % 0.0 mm 0.0 W/m2 CLR
03:41 6.1 °C 4.8 °C 1018.5 hPa Calm     91 % 0.0 mm 0.0 W/m2 CLR
03:46 5.6 °C 4.2 °C 1018.5 hPa Calm     91 % 0.0 mm 0.0 W/m2 CLR
03:51 5.6 °C 4.2 °C 1018.2 hPa Calm     91 % 0.0 mm 0.0 W/m2 CLR
03:56 5.6 °C 4.2 °C 1018.2 hPa Calm     91 % 0.0 mm 0.0 W/m2 CLR
04:01 5.6 °C 4.2 °C 1018.2 hPa Calm     91 % 0.0 mm 0.0 W/m2 CLR
04:06 5.6 °C 4.3 °C 1017.8 hPa Calm     92 % 0.0 mm 0.0 W/m2 CLR
04:11 5.6 °C 4.3 °C 1018.2 hPa Calm     92 % 0.0 mm 0.0 W/m2 CLR
04:16 5.6 °C 4.3 °C 1018.2 hPa Calm     92 % 0.0 mm 0.0 W/m2 CLR
04:21 5.6 °C 4.3 °C 1017.8 hPa Calm     92 % 0.0 mm 0.0 W/m2 CLR
04:22 5.6 °C 4.2 °C 1017.8 hPa Calm     91 % 0.0 mm 0.0 W/m2 CLR
04:26 5.6 °C 4.2 °C 1017.8 hPa Calm     91 % 0.0 mm 0.0 W/m2 CLR
04:31 5.6 °C 4.2 °C 1017.8 hPa Calm     91 % 0.0 mm 0.0 W/m2 CLR
04:33 5.6 °C 4.2 °C 1017.8 hPa Calm     91 % 0.0 mm 0.0 W/m2 CLR
04:38 5.6 °C 4.2 °C 1017.8 hPa Calm     91 % 0.0 mm 0.0 W/m2 CLR
04:43 5.6 °C 4.2 °C 1017.8 hPa Calm     91 % 0.0 mm 0.0 W/m2 CLR
04:48 5.6 °C 4.2 °C 1017.8 hPa Calm     91 % 0.0 mm 0.0 W/m2 CLR
04:53 6.1 °C 4.8 °C 1017.8 hPa Calm     91 % 0.0 mm 0.0 W/m2 CLR
04:58 6.1 °C 4.9 °C 1017.8 hPa Calm     92 % 0.0 mm 0.0 W/m2 CLR
05:03 6.1 °C 4.9 °C 1017.8 hPa Calm     92 % 0.0 mm 0.0 W/m2 CLR
05:08 5.6 °C 4.3 °C 1017.8 hPa Calm     92 % 0.0 mm 0.0 W/m2 CLR
05:13 5.6 °C 4.3 °C 1017.8 hPa Calm     92 % 0.0 mm 0.0 W/m2 CLR
05:18 5.6 °C 4.3 °C 1017.8 hPa Calm     92 % 0.0 mm 0.0 W/m2 CLR
05:23 5.6 °C 4.3 °C 1017.5 hPa Calm     92 % 0.0 mm 0.0 W/m2 CLR
05:28 5.0 °C 3.8 °C 1017.5 hPa Calm     92 % 0.0 mm 0.0 W/m2 CLR
05:29 5.0 °C 3.8 °C 1017.5 hPa Calm     92 % 0.0 mm 0.0 W/m2 CLR
05:34 5.0 °C 3.8 °C 1017.5 hPa Calm     92 % 0.0 mm 0.0 W/m2 CLR
05:39 5.0 °C 3.8 °C 1017.5 hPa Calm     92 % 0.0 mm 0.0 W/m2 CLR
05:44 5.0 °C 3.8 °C 1017.5 hPa Calm     92 % 0.0 mm 0.0 W/m2 CLR
05:49 5.0 °C 3.8 °C 1017.2 hPa Calm     92 % 0.0 mm 0.0 W/m2 CLR
05:54 5.6 °C 4.2 °C 1017.5 hPa Calm     91 % 0.0 mm 0.0 W/m2 CLR
05:59 5.6 °C 4.3 °C 1017.2 hPa Calm     92 % 0.0 mm 0.0 W/m2 CLR
06:04 5.6 °C 4.3 °C 1017.5 hPa Calm     92 % 0.0 mm 0.0 W/m2 CLR
06:09 5.6 °C 4.3 °C 1017.2 hPa Calm     92 % 0.0 mm 0.0 W/m2 CLR
06:14 5.6 °C 4.3 °C 1017.2 hPa Calm     92 % 0.0 mm 0.0 W/m2 CLR
06:19 5.6 °C 4.3 °C 1017.2 hPa Calm     92 % 0.0 mm 0.0 W/m2 CLR
06:24 5.6 °C 4.3 °C 1017.2 hPa Calm     92 % 0.0 mm 0.0 W/m2 CLR
06:29 5.6 °C 4.3 °C 1016.8 hPa Calm     92 % 0.0 mm 0.0 W/m2 CLR
06:34 5.6 °C 4.3 °C 1017.2 hPa Calm     92 % 0.0 mm 0.0 W/m2 CLR
06:39 5.6 °C 4.3 °C 1017.2 hPa Calm     92 % 0.0 mm 0.0 W/m2 CLR
06:49 5.6 °C 4.3 °C 1017.2 hPa Calm     92 % 0.0 mm 0.0 W/m2 CLR
06:54 5.6 °C 4.3 °C 1017.2 hPa Calm     92 % 0.0 mm 0.0 W/m2 CLR
06:59 5.6 °C 4.3 °C 1016.8 hPa Calm     92 % 0.0 mm 0.0 W/m2 CLR
07:04 5.6 °C 4.3 °C 1017.2 hPa Calm     92 % 0.0 mm 0.0 W/m2 CLR
07:09 5.0 °C 3.8 °C 1017.2 hPa Calm     92 % 0.0 mm 0.0 W/m2 CLR
07:14 5.0 °C 3.8 °C 1017.2 hPa Calm     92 % 0.0 mm 0.0 W/m2 CLR
07:19 5.0 °C 3.8 °C 1017.2 hPa Calm     92 % 0.0 mm 0.0 W/m2 CLR
07:24 5.0 °C 3.8 °C 1017.2 hPa Calm     92 % 0.0 mm 5.0 W/m2 OVC
07:29 5.0 °C 3.8 °C 1017.2 hPa Calm     92 % 0.0 mm 9.0 W/m2 OVC
07:34 5.0 °C 3.8 °C 1017.2 hPa Calm     92 % 0.0 mm 11.0 W/m2 OVC
07:39 5.0 °C 3.8 °C 1017.2 hPa Calm     92 % 0.0 mm 11.0 W/m2 OVC
07:44 5.0 °C 3.8 °C 1017.2 hPa Calm     92 % 0.0 mm 11.0 W/m2 OVC
07:49 5.0 °C 3.8 °C 1017.2 hPa Calm     92 % 0.0 mm 12.0 W/m2 OVC
07:54 5.0 °C 3.8 °C 1016.8 hPa Calm     92 % 0.0 mm 12.0 W/m2 OVC
07:59 5.0 °C 3.8 °C 1017.2 hPa Calm     92 % 0.0 mm 18.0 W/m2 OVC
08:04 5.0 °C 3.8 °C 1016.8 hPa Calm     92 % 0.0 mm 26.0 W/m2 OVC
08:09 5.6 °C 4.3 °C 1017.2 hPa Calm     92 % 0.0 mm 32.0 W/m2 OVC
08:14 5.6 °C 4.3 °C 1017.2 hPa Calm     92 % 0.0 mm 39.0 W/m2 OVC
08:19 5.6 °C 4.3 °C 1017.5 hPa Calm     92 % 0.0 mm 42.0 W/m2 OVC
08:24 5.6 °C 4.5 °C 1017.5 hPa Calm     93 % 0.0 mm 33.0 W/m2 OVC
08:29 5.6 °C 4.3 °C 1017.5 hPa Calm     92 % 0.0 mm 37.0 W/m2 OVC
08:34 5.6 °C 4.3 °C 1017.5 hPa Calm     92 % 0.0 mm 44.0 W/m2 OVC
08:39 5.6 °C 4.3 °C 1017.5 hPa Calm     92 % 0.0 mm 58.0 W/m2 BKN
08:44 5.6 °C 4.5 °C 1017.5 hPa Calm     93 % 0.0 mm 60.0 W/m2 SCT
08:49 5.6 °C 4.5 °C 1017.8 hPa Calm     93 % 0.0 mm 67.0 W/m2 SCT
08:54 6.1 °C 4.9 °C 1017.5 hPa Calm     92 % 0.0 mm 130.0 W/m2 FEW
08:59 6.1 °C 4.9 °C 1017.5 hPa Calm     92 % 0.0 mm 93.0 W/m2 CLR
09:04 6.7 °C 5.4 °C 1017.5 hPa Calm     92 % 0.0 mm 109.0 W/m2 CLR
09:09 6.7 °C 5.4 °C 1017.5 hPa Calm     92 % 0.0 mm 195.0 W/m2 CLR
09:10 7.2 °C 6.0 °C 1017.5 hPa Calm     92 % 0.0 mm 195.0 W/m2 CLR
09:15 7.2 °C 6.0 °C 1017.8 hPa Calm     92 % 0.0 mm 163.0 W/m2 CLR
09:20 7.8 °C 6.4 °C 1017.8 hPa Calm     91 % 0.0 mm 197.0 W/m2 CLR
09:25 7.8 °C 6.4 °C 1017.8 hPa Calm     91 % 0.0 mm 220.0 W/m2 CLR
09:30 8.3 °C 6.8 °C 1017.8 hPa Calm     90 % 0.0 mm 209.0 W/m2 CLR
09:35 8.9 °C 7.3 °C 1017.8 hPa Calm     90 % 0.0 mm 234.0 W/m2 CLR
09:40 9.4 °C 7.6 °C 1017.5 hPa Calm     88 % 0.0 mm 279.0 W/m2 CLR
09:45 9.4 °C 7.4 °C 1017.8 hPa Calm     87 % 0.0 mm 308.0 W/m2 CLR
09:50 10.0 °C 7.9 °C 1017.8 hPa Calm     87 % 0.0 mm 327.0 W/m2 CLR
09:55 10.6 °C 8.1 °C 1017.8 hPa Calm     85 % 0.0 mm 352.0 W/m2 CLR
10:00 10.6 °C 7.9 °C 1017.8 hPa Calm     84 % 0.3 mm 132.0 W/m2 RA
10:05 10.6 °C 7.6 °C 1017.8 hPa Calm     82 % 0.3 mm 144.0 W/m2 CLR
10:10 11.1 °C 7.9 °C 1017.8 hPa Calm     81 % 0.3 mm 155.0 W/m2 CLR
10:16 11.1 °C 7.9 °C 1017.5 hPa Calm     81 % 0.3 mm 178.0 W/m2 CLR
10:21 11.7 °C 8.7 °C 1017.8 hPa Calm     82 % 0.3 mm 190.0 W/m2 CLR
10:26 11.7 °C 8.7 °C 1017.8 hPa Calm     82 % 0.3 mm 169.0 W/m2 CLR
10:31 12.2 °C 9.2 °C 1017.8 hPa Calm     82 % 0.3 mm 172.0 W/m2 CLR
10:36 12.2 °C 9.2 °C 1017.8 hPa Calm     82 % 0.3 mm 186.0 W/m2 CLR
10:41 12.8 °C 9.6 °C 1017.8 hPa Calm     81 % 0.3 mm 188.0 W/m2 CLR
10:46 12.8 °C 9.6 °C 1017.8 hPa Calm     81 % 0.3 mm 171.0 W/m2 CLR
10:51 12.8 °C 9.6 °C 1017.8 hPa Calm     81 % 0.3 mm 230.0 W/m2 CLR
10:56 13.3 °C 10.2 °C 1017.8 hPa Calm     81 % 0.3 mm 241.0 W/m2 CLR
11:01 13.3 °C 10.2 °C 1017.8 hPa Calm     81 % 0.0 mm 202.0 W/m2 CLR
11:06 13.9 °C 10.5 °C 1017.8 hPa Calm     80 % 0.0 mm 202.0 W/m2 CLR
11:11 13.9 °C 10.5 °C 1017.8 hPa Calm     80 % 0.0 mm 183.0 W/m2 CLR
11:16 13.9 °C 10.3 °C 1017.5 hPa Calm     79 % 0.0 mm 236.0 W/m2 CLR
11:21 14.4 °C 10.8 °C 1017.5 hPa Calm     79 % 0.0 mm 309.0 W/m2 CLR
11:26 14.4 °C 10.7 °C 1017.5 hPa Calm     78 % 0.0 mm 443.0 W/m2 CLR
11:31 15.0 °C 10.8 °C 1017.5 hPa Calm     76 % 0.0 mm 262.0 W/m2 CLR
11:36 15.0 °C 10.4 °C 1017.5 hPa Calm     74 % 0.0 mm 316.0 W/m2 CLR
11:38 15.0 °C 10.6 °C 1017.5 hPa Calm     75 % 0.0 mm 640.0 W/m2 CLR
11:43 16.1 °C 11.5 °C 1017.5 hPa Calm     74 % 0.0 mm 677.0 W/m2 CLR
11:48 16.1 °C 11.3 °C 1017.2 hPa Calm     73 % 0.0 mm 294.0 W/m2 CLR
11:53 16.7 °C 11.4 °C 1017.2 hPa Calm     71 % 0.0 mm 267.0 W/m2 CLR
11:58 16.7 °C 11.2 °C 1017.2 hPa Calm     70 % 0.0 mm 308.0 W/m2 CLR
12:03 16.7 °C 11.2 °C 1017.2 hPa West 1.6 km/h 1.6 km/h 70 % 0.0 mm 381.0 W/m2 CLR
12:08 17.2 °C 11.5 °C 1017.2 hPa Calm     69 % 0.0 mm 589.0 W/m2 CLR
12:13 17.2 °C 11.3 °C 1016.8 hPa Calm     68 % 0.0 mm 649.0 W/m2 CLR
12:18 17.8 °C 11.6 °C 1016.8 hPa Calm     67 % 0.0 mm 341.0 W/m2 CLR
12:23 17.8 °C 11.3 °C 1016.8 hPa Calm     66 % 0.0 mm 448.0 W/m2 CLR
12:28 17.8 °C 11.6 °C 1016.8 hPa NW 7.4 km/h 7.4 km/h 67 % 0.0 mm 227.0 W/m2 CLR
12:33 17.8 °C 11.6 °C 1016.5 hPa Calm     67 % 0.0 mm 555.0 W/m2 CLR
12:38 18.3 °C 11.9 °C 1016.5 hPa NNW 3.7 km/h   66 % 0.0 mm 591.0 W/m2 CLR
12:48 18.9 °C 12.2 °C 1016.5 hPa NNW 6.4 km/h 6.4 km/h 65 % 0.0 mm 515.0 W/m2 CLR
12:53 18.9 °C 12.2 °C 1016.1 hPa NW 5.6 km/h 5.6 km/h 65 % 0.0 mm 473.0 W/m2 CLR
12:58 18.9 °C 11.9 °C 1016.1 hPa NW 6.4 km/h 6.4 km/h 64 % 0.0 mm 385.0 W/m2 CLR
13:03 18.9 °C 11.7 °C 1016.1 hPa Calm     63 % 0.0 mm 243.0 W/m2 CLR
13:08 18.9 °C 11.9 °C 1016.1 hPa Calm     64 % 0.0 mm 283.0 W/m2 CLR
13:13 18.9 °C 11.7 °C 1015.8 hPa Calm     63 % 0.0 mm 364.0 W/m2 CLR
13:18 18.9 °C 11.7 °C 1015.8 hPa NNW 5.6 km/h   63 % 0.0 mm 295.0 W/m2 CLR
13:23 18.9 °C 11.7 °C 1015.8 hPa Calm     63 % 0.0 mm 545.0 W/m2 CLR
13:28 19.4 °C 12.2 °C 1015.8 hPa NW 5.6 km/h 5.6 km/h 63 % 0.0 mm 570.0 W/m2 CLR
13:33 20.0 °C 12.2 °C 1015.8 hPa NNW 3.7 km/h 3.7 km/h 61 % 0.0 mm 557.0 W/m2 CLR
13:38 20.0 °C 12.0 °C 1015.5 hPa NW 6.4 km/h 6.4 km/h 60 % 0.0 mm 311.0 W/m2 CLR
13:48 20.0 °C 11.7 °C 1015.5 hPa NW 7.4 km/h 7.4 km/h 59 % 0.0 mm 557.0 W/m2 CLR
13:53 20.6 °C 12.3 °C 1015.1 hPa WNW 6.4 km/h 6.4 km/h 59 % 0.0 mm 510.0 W/m2 CLR
13:58 20.6 °C 11.7 °C 1015.1 hPa WNW 5.6 km/h 5.6 km/h 57 % 0.0 mm 373.0 W/m2 CLR
14:03 20.6 °C 11.4 °C 1015.1 hPa NW 6.4 km/h 6.4 km/h 56 % 0.0 mm 380.0 W/m2 CLR
14:08 21.1 °C 11.4 °C 1015.1 hPa WNW 5.6 km/h 5.6 km/h 54 % 0.0 mm 526.0 W/m2 CLR
14:13 21.7 °C 11.7 °C 1014.8 hPa Calm     53 % 0.0 mm 496.0 W/m2 CLR
14:18 21.7 °C 11.4 °C 1014.8 hPa Calm     52 % 0.0 mm 536.0 W/m2 CLR
14:23 22.2 °C 11.3 °C 1014.8 hPa NNW 7.4 km/h 7.4 km/h 50 % 0.0 mm 506.0 W/m2 CLR
14:28 22.2 °C 11.6 °C 1014.4 hPa North 9.3 km/h 9.3 km/h 51 % 0.0 mm 490.0 W/m2 CLR
14:33 22.8 °C 11.8 °C 1014.4 hPa NNW 5.6 km/h 5.6 km/h 50 % 0.0 mm 482.0 W/m2 CLR
14:38 22.8 °C 11.8 °C 1014.4 hPa NW 13.0 km/h   50 % 0.0 mm 464.0 W/m2 CLR
14:43 22.8 °C 11.2 °C 1014.4 hPa North 7.4 km/h 7.4 km/h 48 % 0.0 mm 443.0 W/m2 CLR
14:48 22.2 °C 10.4 °C 1014.4 hPa NW 14.8 km/h 14.8 km/h 47 % 0.0 mm 431.0 W/m2 CLR
14:53 22.2 °C 10.4 °C 1014.4 hPa NNW 16.7 km/h 16.7 km/h 47 % 0.0 mm 415.0 W/m2 CLR
14:58 22.2 °C 10.7 °C 1014.4 hPa NNW 16.7 km/h 16.7 km/h 48 % 0.0 mm 408.0 W/m2 CLR
15:03 22.2 °C 11.0 °C 1014.4 hPa North 14.8 km/h 14.8 km/h 49 % 0.0 mm 378.0 W/m2 CLR
15:08 21.7 °C 10.2 °C 1014.4 hPa NW 13.0 km/h 13.0 km/h 48 % 0.0 mm 227.0 W/m2 CLR
15:13 21.7 °C 10.5 °C 1014.1 hPa NNW 9.3 km/h 9.3 km/h 49 % 0.0 mm 176.0 W/m2 CLR
15:18 21.7 °C 10.8 °C 1014.1 hPa NW 5.6 km/h 5.6 km/h 50 % 0.0 mm 294.0 W/m2 CLR
15:23 22.2 °C 11.3 °C 1014.4 hPa NW 8.0 km/h 8.0 km/h 50 % 0.0 mm 367.0 W/m2 CLR
15:28 22.2 °C 11.0 °C 1014.4 hPa NNW 14.8 km/h 14.8 km/h 49 % 0.0 mm 366.0 W/m2 CLR
15:33 22.2 °C 11.0 °C 1014.1 hPa Calm     49 % 0.0 mm 332.0 W/m2 CLR
15:38 22.2 °C 11.0 °C 1014.1 hPa NW 11.1 km/h 11.1 km/h 49 % 0.0 mm 338.0 W/m2 CLR
15:43 22.2 °C 11.0 °C 1014.1 hPa Calm     49 % 0.0 mm 318.0 W/m2 CLR
15:48 22.2 °C 10.7 °C 1014.4 hPa NNW 5.6 km/h 5.6 km/h 48 % 0.0 mm 297.0 W/m2 CLR
15:53 22.2 °C 10.7 °C 1014.4 hPa NNW 16.7 km/h 16.7 km/h 48 % 0.0 mm 121.0 W/m2 CLR
15:58 21.7 °C 10.5 °C 1014.4 hPa NW 9.3 km/h 9.3 km/h 49 % 0.0 mm 279.0 W/m2 CLR
16:03 21.7 °C 10.8 °C 1014.4 hPa Calm     50 % 0.0 mm 269.0 W/m2 CLR
16:08 21.7 °C 10.8 °C 1014.4 hPa NNE 9.7 km/h 9.7 km/h 50 % 0.0 mm 255.0 W/m2 CLR
16:13 21.7 °C 11.1 °C 1014.4 hPa North 11.1 km/h 11.1 km/h 51 % 0.0 mm 211.0 W/m2 CLR
16:18 21.7 °C 11.7 °C 1014.4 hPa Calm   0.5 km/h 53 % 0.0 mm 153.0 W/m2 CLR
16:23 21.1 °C 11.4 °C 1014.4 hPa NE 13.0 km/h 13.0 km/h 54 % 0.0 mm 56.0 W/m2 CLR
16:28 20.6 °C 11.2 °C 1014.4 hPa NNE 5.6 km/h 5.6 km/h 55 % 0.0 mm 72.0 W/m2 FEW
16:33 20.6 °C 11.4 °C 1014.4 hPa Calm   3.9 km/h 56 % 0.0 mm 65.0 W/m2 SCT
16:38 20.0 °C 11.2 °C 1014.4 hPa NNE 3.2 km/h 3.2 km/h 57 % 0.0 mm 63.0 W/m2 SCT
16:43 20.0 °C 11.2 °C 1014.1 hPa Calm     57 % 0.0 mm 84.0 W/m2 FEW
16:48 19.4 °C 10.7 °C 1014.1 hPa NNE 7.4 km/h 7.4 km/h 57 % 0.0 mm 84.0 W/m2 FEW
16:49 19.4 °C 10.7 °C 1014.1 hPa NNE 3.7 km/h 3.7 km/h 57 % 0.0 mm 84.0 W/m2 FEW
16:54 20.0 °C 11.5 °C 1014.1 hPa NNE 5.6 km/h 5.6 km/h 58 % 0.0 mm 79.0 W/m2 FEW
16:59 20.0 °C 12.0 °C 1014.1 hPa NNE 7.4 km/h 7.4 km/h 60 % 0.0 mm 95.0 W/m2 CLR
17:04 19.4 °C 11.9 °C 1014.4 hPa NNE 13.0 km/h 13.0 km/h 62 % 0.0 mm 63.0 W/m2 SCT
17:09 19.4 °C 12.2 °C 1014.4 hPa NNE 8.0 km/h 8.0 km/h 63 % 0.0 mm 53.0 W/m2 SCT
17:14 19.4 °C 12.4 °C 1014.1 hPa NNE 8.0 km/h 8.0 km/h 64 % 0.0 mm 60.0 W/m2 SCT
17:19 18.9 °C 12.4 °C 1014.1 hPa NNE 5.6 km/h 5.6 km/h 66 % 0.0 mm 49.0 W/m2 SCT
17:24 18.9 °C 12.4 °C 1014.1 hPa Calm     66 % 0.0 mm 47.0 W/m2 SCT
17:29 18.9 °C 12.6 °C 1014.4 hPa Calm     67 % 0.0 mm 28.0 W/m2 BKN
17:34 18.3 °C 12.3 °C 1014.4 hPa NE 3.7 km/h 3.7 km/h 68 % 0.0 mm 16.0 W/m2 BKN
17:39 17.8 °C 12.0 °C 1014.4 hPa Calm     69 % 0.0 mm 11.0 W/m2 BKN
17:44 17.2 °C 11.7 °C 1014.4 hPa NNE 3.7 km/h   70 % 0.0 mm 9.0 W/m2 BKN
17:49 16.7 °C 11.4 °C 1014.4 hPa Calm     71 % 0.0 mm 5.0 W/m2 OVC
17:54 16.1 °C 11.1 °C 1014.4 hPa Calm     72 % 0.0 mm 0.0 W/m2 OVC
17:59 15.6 °C 10.7 °C 1014.4 hPa Calm     73 % 0.0 mm 0.0 W/m2 OVC
18:04 15.0 °C 10.2 °C 1014.4 hPa Calm     73 % 0.0 mm 0.0 W/m2 CLR
18:09 15.0 °C 10.4 °C 1014.4 hPa Calm     74 % 0.0 mm 0.0 W/m2 CLR
18:14 14.4 °C 9.9 °C 1014.8 hPa Calm     74 % 0.0 mm 0.0 W/m2 CLR
18:19 13.9 °C 9.3 °C 1014.8 hPa Calm     74 % 0.0 mm 0.0 W/m2 CLR
18:24 13.9 °C 9.6 °C 1014.8 hPa Calm     75 % 0.0 mm 0.0 W/m2 CLR
18:29 13.3 °C 9.0 °C 1014.8 hPa Calm     75 % 0.0 mm 0.0 W/m2 CLR
18:34 13.3 °C 9.2 °C 1015.1 hPa Calm     76 % 0.0 mm 0.0 W/m2 CLR
18:39 13.3 °C 9.2 °C 1015.1 hPa Calm     76 % 0.0 mm 0.0 W/m2 CLR
18:44 12.8 °C 8.8 °C 1015.1 hPa Calm     77 % 0.0 mm 0.0 W/m2 CLR
18:49 12.8 °C 8.8 °C 1015.1 hPa Calm     77 % 0.0 mm 0.0 W/m2 CLR
18:54 12.8 °C 9.1 °C 1015.1 hPa Calm     78 % 0.0 mm 0.0 W/m2 CLR
18:59 12.2 °C 8.5 °C 1015.1 hPa Calm     78 % 0.0 mm 0.0 W/m2 CLR
19:04 12.2 °C 8.7 °C 1015.1 hPa Calm     79 % 0.0 mm 0.0 W/m2 CLR
19:09 12.2 °C 8.5 °C 1015.5 hPa Calm     78 % 0.0 mm 0.0 W/m2 CLR
19:14 12.2 °C 8.5 °C 1015.5 hPa Calm     78 % 0.0 mm 0.0 W/m2 CLR
19:19 12.2 °C 8.9 °C 1015.5 hPa Calm     80 % 0.0 mm 0.0 W/m2 CLR
19:24 11.7 °C 8.5 °C 1015.5 hPa Calm     81 % 0.0 mm 0.0 W/m2 CLR
19:29 11.7 °C 8.7 °C 1015.5 hPa Calm     82 % 0.0 mm 0.0 W/m2 CLR
19:34 11.7 °C 8.5 °C 1015.5 hPa Calm     81 % 0.0 mm 0.0 W/m2 CLR
19:39 11.7 °C 8.3 °C 1015.5 hPa Calm     80 % 0.0 mm 0.0 W/m2 CLR
19:44 11.7 °C 8.2 °C 1015.5 hPa Calm     79 % 0.0 mm 0.0 W/m2 CLR
19:49 12.2 °C 8.9 °C 1015.5 hPa Calm     80 % 0.0 mm 0.0 W/m2 CLR
19:54 12.8 °C 9.6 °C 1015.5 hPa Calm     81 % 0.0 mm 0.0 W/m2 CLR
19:59 12.8 °C 9.8 °C 1015.5 hPa Calm     82 % 0.0 mm 0.0 W/m2 CLR
20:04 12.2 °C 9.2 °C 1015.5 hPa Calm     82 % 0.0 mm 0.0 W/m2 CLR
20:09 12.2 °C 9.1 °C 1015.5 hPa Calm     81 % 0.0 mm 0.0 W/m2 CLR
20:14 12.2 °C 9.1 °C 1015.5 hPa Calm     81 % 0.0 mm 0.0 W/m2 CLR
20:19 11.7 °C 8.5 °C 1015.5 hPa Calm     81 % 0.0 mm 0.0 W/m2 CLR
20:24 11.7 °C 8.7 °C 1015.5 hPa Calm     82 % 0.0 mm 0.0 W/m2 CLR
20:29 11.1 °C 8.2 °C 1015.8 hPa Calm     82 % 0.0 mm 0.0 W/m2 CLR
20:34 11.1 °C 8.3 °C 1015.5 hPa Calm     83 % 0.0 mm 0.0 W/m2 CLR
20:40 10.6 °C 7.8 °C 1015.5 hPa Calm     83 % 0.0 mm 0.0 W/m2 CLR
20:45 10.6 °C 7.8 °C 1015.8 hPa Calm     83 % 0.0 mm 0.0 W/m2 CLR
20:50 10.6 °C 7.8 °C 1015.8 hPa Calm     83 % 0.0 mm 0.0 W/m2 CLR
20:55 10.6 °C 7.8 °C 1015.8 hPa Calm     83 % 0.0 mm 0.0 W/m2 CLR
21:00 10.6 °C 7.8 °C 1015.8 hPa Calm     83 % 0.0 mm 0.0 W/m2 CLR
21:05 10.6 °C 7.9 °C 1015.8 hPa Calm     84 % 0.0 mm 0.0 W/m2 CLR
21:10 11.1 °C 8.7 °C 1015.8 hPa Calm     85 % 0.0 mm 0.0 W/m2 CLR
21:15 11.1 °C 8.7 °C 1015.8 hPa Calm     85 % 0.0 mm 0.0 W/m2 CLR
21:20 11.1 °C 8.5 °C 1015.8 hPa Calm     84 % 0.0 mm 0.0 W/m2 CLR
21:25 11.1 °C 8.5 °C 1015.8 hPa Calm     84 % 0.0 mm 0.0 W/m2 CLR
21:30 11.1 °C 8.5 °C 1015.8 hPa Calm     84 % 0.0 mm 0.0 W/m2 CLR
21:35 10.6 °C 7.9 °C 1015.8 hPa Calm     84 % 0.0 mm 0.0 W/m2 CLR
21:40 10.6 °C 7.8 °C 1015.8 hPa Calm     83 % 0.0 mm 0.0 W/m2 CLR
21:45 10.6 °C 7.8 °C 1015.8 hPa Calm     83 % 0.0 mm 0.0 W/m2 CLR
21:50 10.0 °C 7.2 °C 1015.8 hPa Calm     83 % 0.0 mm 0.0 W/m2 CLR
21:55 10.0 °C 7.4 °C 1016.1 hPa Calm     84 % 0.0 mm 0.0 W/m2 CLR
22:00 10.0 °C 7.4 °C 1016.1 hPa Calm     84 % 0.0 mm 0.0 W/m2 CLR
22:05 9.4 °C 7.1 °C 1016.1 hPa Calm     85 % 0.0 mm 0.0 W/m2 CLR
22:10 9.4 °C 6.9 °C 1016.1 hPa Calm     84 % 0.0 mm 0.0 W/m2 CLR
22:15 9.4 °C 6.9 °C 1016.1 hPa Calm     84 % 0.0 mm 0.0 W/m2 CLR
22:20 9.4 °C 6.9 °C 1016.1 hPa Calm     84 % 0.0 mm 0.0 W/m2 CLR
22:25 9.4 °C 6.9 °C 1016.1 hPa Calm     84 % 0.0 mm 0.0 W/m2 CLR
22:30 9.4 °C 6.9 °C 1016.1 hPa Calm     84 % 0.0 mm 0.0 W/m2 CLR
22:35 9.4 °C 7.1 °C 1016.1 hPa Calm     85 % 0.0 mm 0.0 W/m2 CLR
22:40 9.4 °C 7.1 °C 1016.1 hPa Calm     85 % 0.0 mm 0.0 W/m2 CLR
22:45 9.4 °C 7.1 °C 1016.1 hPa Calm     85 % 0.0 mm 0.0 W/m2 CLR
22:50 9.4 °C 6.9 °C 1016.1 hPa Calm     84 % 0.0 mm 0.0 W/m2 CLR
22:55 9.4 °C 6.9 °C 1016.1 hPa Calm     84 % 0.0 mm 0.0 W/m2 CLR
23:00 9.4 °C 6.9 °C 1016.1 hPa Calm     84 % 0.0 mm 0.0 W/m2 CLR
23:05 9.4 °C 6.9 °C 1015.8 hPa Calm     84 % 0.0 mm 0.0 W/m2 CLR
23:10 9.4 °C 7.1 °C 1015.8 hPa Calm     85 % 0.0 mm 0.0 W/m2 CLR
23:15 8.9 °C 6.5 °C 1015.8 hPa Calm     85 % 0.0 mm 0.0 W/m2 CLR
23:20 8.9 °C 6.5 °C 1015.8 hPa Calm     85 % 0.0 mm 0.0 W/m2 CLR
23:25 8.9 °C 6.5 °C 1015.8 hPa Calm     85 % 0.0 mm 0.0 W/m2 CLR
23:30 8.9 °C 6.5 °C 1015.8 hPa Calm     85 % 0.0 mm 0.0 W/m2 CLR
23:40 8.9 °C 6.5 °C 1015.8 hPa Calm     85 % 0.0 mm 0.0 W/m2 CLR
23:45 8.9 °C 6.5 °C 1015.5 hPa Calm     85 % 0.0 mm 0.0 W/m2 CLR
23:50 8.9 °C 6.5 °C 1015.5 hPa Calm     85 % 0.0 mm 0.0 W/m2 CLR
23:55 8.9 °C 6.5 °C 1015.5 hPa Calm     85 % 0.0 mm 0.0 W/m2 CLR
Lo Temps de Massalio
Compliments of Weather Underground - 1.25 mb